createdAt,value
2023-05-03T00:02:10.657Z,5.90
2023-05-03T00:04:37.634Z,5.90
2023-05-03T00:07:04.768Z,5.90
2023-05-03T00:09:33.448Z,5.90
2023-05-03T00:12:01.476Z,6.00
2023-05-03T00:14:28.760Z,6.00
2023-05-03T00:16:55.967Z,6.00
2023-05-03T00:19:31.378Z,6.00
2023-05-03T00:21:59.075Z,6.00
2023-05-03T00:24:25.968Z,6.00
2023-05-03T00:26:52.801Z,5.90
2023-05-03T00:29:21.395Z,5.90
2023-05-03T00:31:48.494Z,5.90
2023-05-03T00:34:15.432Z,5.70
2023-05-03T00:36:42.344Z,5.70
2023-05-03T00:39:09.986Z,5.70
2023-05-03T00:41:36.915Z,5.70
2023-05-03T00:44:03.758Z,5.70
2023-05-03T00:46:30.971Z,5.70
2023-05-03T00:48:58.160Z,5.70
2023-05-03T00:51:27.834Z,5.60
2023-05-03T00:53:54.749Z,5.60
2023-05-03T00:56:23.525Z,5.60
2023-05-03T00:58:53.469Z,5.50
2023-05-03T01:01:20.512Z,5.50
2023-05-03T01:03:48.284Z,5.50
2023-05-03T01:06:38.048Z,5.50
2023-05-03T01:09:34.045Z,5.50
2023-05-03T01:12:09.384Z,5.40
2023-05-03T01:14:55.072Z,5.40
2023-05-03T01:17:28.221Z,5.40
2023-05-03T01:20:08.616Z,5.30
2023-05-03T01:22:41.921Z,5.30
2023-05-03T01:25:10.760Z,5.20
2023-05-03T01:27:38.832Z,5.20
2023-05-03T01:30:07.693Z,5.20
2023-05-03T01:32:49.518Z,5.20
2023-05-03T01:36:01.174Z,5.20
2023-05-03T01:38:33.197Z,5.20
2023-05-03T01:41:02.636Z,5.20
2023-05-03T01:43:31.812Z,5.20
2023-05-03T01:45:59.352Z,5.20
2023-05-03T01:48:26.237Z,5.10
2023-05-03T01:50:53.121Z,5.20
2023-05-03T01:53:20.365Z,5.20
2023-05-03T01:55:47.269Z,5.20
2023-05-03T01:58:14.152Z,5.10
2023-05-03T02:00:41.173Z,5.20
2023-05-03T02:03:08.108Z,5.20
2023-05-03T02:05:35.629Z,5.10
2023-05-03T02:08:02.478Z,5.00
2023-05-03T02:10:29.362Z,5.00
2023-05-03T02:12:56.252Z,5.00
2023-05-03T02:15:23.169Z,4.90
2023-05-03T02:17:51.090Z,5.00
2023-05-03T02:20:18.253Z,5.00
2023-05-03T02:22:45.241Z,5.00
2023-05-03T02:25:12.299Z,4.90
2023-05-03T02:27:39.192Z,4.80
2023-05-03T02:30:07.885Z,4.80
2023-05-03T02:32:34.863Z,4.80
2023-05-03T02:35:02.071Z,4.80
2023-05-03T02:37:28.916Z,4.80
2023-05-03T02:39:55.845Z,4.80
2023-05-03T02:42:22.894Z,4.70
2023-05-03T02:44:49.759Z,4.70
2023-05-03T02:47:16.604Z,4.70
2023-05-03T02:49:43.531Z,4.80
2023-05-03T02:52:10.368Z,4.80
2023-05-03T02:54:37.207Z,4.80
2023-05-03T02:57:04.762Z,4.80
2023-05-03T02:59:33.031Z,4.80
2023-05-03T03:02:00.043Z,5.00
2023-05-03T03:04:27.116Z,5.00
2023-05-03T03:06:54.217Z,5.00
2023-05-03T03:09:21.059Z,5.00
2023-05-03T03:11:48.176Z,4.90
2023-05-03T03:14:15.064Z,4.90
2023-05-03T03:16:42.025Z,4.90
2023-05-03T03:19:08.853Z,4.90
2023-05-03T03:21:37.233Z,4.90
2023-05-03T03:24:04.907Z,4.90
2023-05-03T03:26:31.754Z,4.80
2023-05-03T03:28:58.614Z,4.80
2023-05-03T03:31:26.232Z,4.70
2023-05-03T03:33:53.076Z,4.80
2023-05-03T03:36:19.981Z,4.70
2023-05-03T03:38:46.996Z,4.70
2023-05-03T03:41:13.977Z,4.70
2023-05-03T03:43:40.849Z,4.70
2023-05-03T03:46:11.547Z,4.70
2023-05-03T03:48:38.345Z,4.80
2023-05-03T03:51:05.205Z,4.80
2023-05-03T03:53:32.027Z,4.70
2023-05-03T03:55:58.926Z,4.80
2023-05-03T03:58:25.769Z,4.70
2023-05-03T04:00:52.830Z,4.70
2023-05-03T04:03:20.473Z,4.80
2023-05-03T04:05:47.368Z,4.80
2023-05-03T04:08:14.217Z,4.90
2023-05-03T04:10:41.013Z,4.90
2023-05-03T04:13:08.383Z,4.90
2023-05-03T04:15:35.409Z,4.90
2023-05-03T04:18:02.286Z,4.80
2023-05-03T04:20:29.548Z,4.80
2023-05-03T04:22:56.378Z,4.80
2023-05-03T04:25:24.855Z,4.90
2023-05-03T04:27:52.091Z,4.90
2023-05-03T04:30:19.328Z,5.00
2023-05-03T04:32:47.392Z,5.00
2023-05-03T04:35:14.275Z,5.00
2023-05-03T04:37:42.161Z,5.00
2023-05-03T04:40:10.720Z,5.00
2023-05-03T04:42:37.613Z,5.10
2023-05-03T04:45:06.938Z,5.10
2023-05-03T04:47:34.278Z,5.10
2023-05-03T04:50:02.450Z,5.20
2023-05-03T04:52:29.562Z,5.20
2023-05-03T04:54:56.608Z,5.40
2023-05-03T04:57:23.451Z,5.40
2023-05-03T04:59:50.413Z,5.40
2023-05-03T05:02:17.284Z,5.50
2023-05-03T05:04:44.122Z,5.60
2023-05-03T05:07:12.046Z,5.70
2023-05-03T05:09:39.031Z,5.80
2023-05-03T05:12:06.134Z,5.90
2023-05-03T05:14:33.556Z,6.10
2023-05-03T05:17:00.461Z,6.10
2023-05-03T05:19:27.699Z,6.20
2023-05-03T05:21:54.540Z,6.40
2023-05-03T05:24:21.357Z,6.80
2023-05-03T05:26:48.768Z,7.20
2023-05-03T05:29:15.639Z,8.10
2023-05-03T05:31:42.580Z,9.20
2023-05-03T05:34:09.483Z,10.10
2023-05-03T05:36:36.486Z,10.80
2023-05-03T05:39:03.900Z,11.40
2023-05-03T05:41:30.845Z,11.80
2023-05-03T05:43:59.038Z,12.10
2023-05-03T05:46:26.121Z,12.80
2023-05-03T05:48:53.034Z,13.20
2023-05-03T05:51:20.240Z,13.80
2023-05-03T05:53:47.194Z,14.10
2023-05-03T05:56:14.580Z,13.90
2023-05-03T05:58:41.523Z,14.00
2023-05-03T06:01:08.665Z,14.40
2023-05-03T06:03:35.773Z,14.10
2023-05-03T06:06:02.728Z,14.20
2023-05-03T06:08:29.966Z,14.30
2023-05-03T06:10:56.881Z,14.30
2023-05-03T06:13:24.965Z,13.90
2023-05-03T06:15:51.821Z,13.90
2023-05-03T06:18:18.675Z,14.20
2023-05-03T06:20:49.716Z,14.20
2023-05-03T06:23:16.564Z,14.40
2023-05-03T06:25:46.589Z,14.90
2023-05-03T06:28:13.459Z,15.40
2023-05-03T06:30:40.459Z,15.80
2023-05-03T06:33:08.348Z,15.90
2023-05-03T06:35:35.277Z,15.70
2023-05-03T06:38:02.384Z,15.60
2023-05-03T06:40:29.254Z,15.40
2023-05-03T06:42:56.064Z,14.80
2023-05-03T06:45:22.877Z,14.60
2023-05-03T06:47:50.520Z,14.20
2023-05-03T06:50:17.489Z,14.70
2023-05-03T06:52:44.354Z,14.70
2023-05-03T06:55:11.288Z,15.20
2023-05-03T06:57:39.353Z,15.00
2023-05-03T07:00:07.463Z,15.80
2023-05-03T07:02:34.756Z,15.80
2023-05-03T07:05:01.690Z,16.10
2023-05-03T07:07:28.518Z,16.20
2023-05-03T07:09:55.402Z,15.90
2023-05-03T07:12:27.740Z,15.80
2023-05-03T07:14:58.152Z,15.60
2023-05-03T07:17:25.690Z,15.90
2023-05-03T07:19:52.835Z,15.50
2023-05-03T07:22:21.443Z,15.60
2023-05-03T07:24:48.404Z,15.80
2023-05-03T07:27:15.677Z,16.50
2023-05-03T07:29:42.522Z,16.90
2023-05-03T07:32:09.423Z,16.90
2023-05-03T07:34:36.414Z,16.90
2023-05-03T07:37:03.219Z,16.90
2023-05-03T07:39:30.031Z,16.70
2023-05-03T07:41:56.855Z,16.70
2023-05-03T07:44:23.714Z,16.80
2023-05-03T07:46:50.516Z,15.90
2023-05-03T07:49:17.448Z,15.60
2023-05-03T07:51:44.505Z,16.30
2023-05-03T07:54:11.397Z,16.40
2023-05-03T07:56:38.255Z,16.60
2023-05-03T07:59:10.068Z,16.70
2023-05-03T08:01:38.157Z,16.30
2023-05-03T08:04:05.831Z,16.20
2023-05-03T08:06:33.542Z,16.30
2023-05-03T08:09:00.862Z,16.00
2023-05-03T08:11:29.300Z,16.20
2023-05-03T08:13:56.684Z,16.20
2023-05-03T08:16:24.017Z,16.40
2023-05-03T08:21:31.214Z,17.30
2023-05-03T08:23:58.056Z,17.30
2023-05-03T08:26:28.701Z,17.20
2023-05-03T08:28:55.791Z,16.60
2023-05-03T08:31:22.724Z,16.40
2023-05-03T08:33:49.639Z,16.00
2023-05-03T08:36:16.758Z,16.20
2023-05-03T08:38:43.645Z,16.90
2023-05-03T08:41:31.086Z,16.60
2023-05-03T08:43:59.630Z,16.10
2023-05-03T08:46:28.512Z,15.30
2023-05-03T08:48:56.351Z,15.70
2023-05-03T08:51:24.789Z,15.60
2023-05-03T08:53:51.844Z,15.20
2023-05-03T08:56:39.480Z,15.20
2023-05-03T08:59:09.624Z,15.70
2023-05-03T09:01:37.752Z,15.60
2023-05-03T09:04:05.528Z,15.50
2023-05-03T09:06:35.585Z,15.10
2023-05-03T09:09:08.972Z,15.10
2023-05-03T09:11:38.111Z,15.40
2023-05-03T09:14:12.387Z,16.00
2023-05-03T09:16:41.213Z,16.00
2023-05-03T09:19:12.745Z,15.80
2023-05-03T09:21:44.499Z,15.50
2023-05-03T09:24:18.244Z,15.80
2023-05-03T09:26:47.250Z,15.50
2023-05-03T09:29:32.127Z,15.20
2023-05-03T09:32:03.277Z,15.00
2023-05-03T09:34:30.194Z,14.70
2023-05-03T09:36:57.146Z,14.50
2023-05-03T09:39:24.001Z,14.10
2023-05-03T09:41:51.014Z,13.90
2023-05-03T09:44:18.061Z,13.70
2023-05-03T09:47:04.300Z,13.50
2023-05-03T09:49:35.089Z,13.30
2023-05-03T09:52:02.169Z,13.00
2023-05-03T09:54:31.558Z,13.00
2023-05-03T09:56:59.323Z,13.00
2023-05-03T09:59:26.250Z,13.10
2023-05-03T10:01:57.752Z,13.00
2023-05-03T10:04:27.616Z,13.10
2023-05-03T10:07:00.964Z,13.10
2023-05-03T10:09:45.548Z,13.00
2023-05-03T10:12:13.596Z,12.80
2023-05-03T10:14:45.813Z,12.70
2023-05-03T10:17:39.473Z,12.90
2023-05-03T10:20:47.180Z,12.90
2023-05-03T10:23:14.439Z,12.90
2023-05-03T10:26:07.429Z,12.90
2023-05-03T10:28:34.630Z,12.90
2023-05-03T10:31:02.673Z,13.00
2023-05-03T10:33:36.903Z,13.00
2023-05-03T10:36:10.724Z,13.20
2023-05-03T10:38:38.142Z,13.20
2023-05-03T10:41:07.109Z,13.10
2023-05-03T10:43:33.998Z,13.10
2023-05-03T10:46:05.831Z,13.00
2023-05-03T10:48:34.036Z,13.20
2023-05-03T10:51:29.201Z,13.20
2023-05-03T10:53:59.241Z,13.50
2023-05-03T10:56:27.423Z,13.40
2023-05-03T10:58:59.196Z,13.40
2023-05-03T11:01:27.649Z,13.40
2023-05-03T11:04:07.995Z,13.10
2023-05-03T11:06:37.184Z,13.00
2023-05-03T11:09:06.921Z,12.90
2023-05-03T11:11:35.784Z,13.00
2023-05-03T11:14:03.141Z,13.00
2023-05-03T11:16:31.264Z,13.10
2023-05-03T11:21:23.908Z,13.20
2023-05-03T11:23:53.538Z,13.10
2023-05-03T11:26:26.384Z,13.10
2023-05-03T11:28:54.366Z,13.10
2023-05-03T11:31:22.870Z,13.10
2023-05-03T11:33:51.288Z,13.10
2023-05-03T11:36:18.353Z,13.10
2023-05-03T11:38:45.918Z,13.20
2023-05-03T11:41:21.866Z,13.40
2023-05-03T11:44:00.464Z,13.50
2023-05-03T11:46:35.151Z,13.50
2023-05-03T11:49:03.240Z,13.60
2023-05-03T11:51:30.332Z,13.50
2023-05-03T11:54:01.312Z,13.50
2023-05-03T11:56:31.663Z,13.40
2023-05-03T11:59:00.237Z,13.30
2023-05-03T12:01:29.048Z,13.50
2023-05-03T12:03:58.167Z,13.70
2023-05-03T12:06:28.066Z,13.70
2023-05-03T12:08:55.376Z,13.70
2023-05-03T12:11:25.544Z,13.60
2023-05-03T12:14:02.228Z,13.60
2023-05-03T12:16:46.218Z,13.50
2023-05-03T12:19:23.683Z,13.50
2023-05-03T12:22:08.662Z,13.60
2023-05-03T12:24:39.387Z,13.70
2023-05-03T12:27:08.534Z,13.90
2023-05-03T12:29:35.966Z,13.80
2023-05-03T12:32:04.387Z,13.70
2023-05-03T12:34:35.473Z,13.80
2023-05-03T12:37:06.150Z,13.90
2023-05-03T12:39:34.221Z,13.90
2023-05-03T12:44:35.011Z,13.90
2023-05-03T12:47:03.397Z,14.00
2023-05-03T12:49:31.108Z,14.10
2023-05-03T12:54:33.734Z,14.10
2023-05-03T12:57:08.279Z,14.20
2023-05-03T12:59:41.801Z,14.20
2023-05-03T13:04:57.608Z,14.20
2023-05-03T13:07:30.706Z,14.10
2023-05-03T13:12:32.730Z,13.90
2023-05-03T13:15:01.144Z,14.00
2023-05-03T13:17:28.281Z,14.00
2023-05-03T13:19:55.324Z,14.00
2023-05-03T13:22:26.399Z,14.10
2023-05-03T13:24:53.321Z,14.00
2023-05-03T13:27:20.157Z,14.00
2023-05-03T13:29:49.392Z,14.10
2023-05-03T13:32:17.059Z,14.10
2023-05-03T13:34:44.359Z,14.10
2023-05-03T13:37:11.964Z,14.10
2023-05-03T13:39:38.885Z,14.30
2023-05-03T13:42:06.358Z,14.30
2023-05-03T13:44:33.251Z,14.20
2023-05-03T13:47:01.498Z,14.10
2023-05-03T13:49:28.351Z,14.20
2023-05-03T13:51:55.208Z,14.30
2023-05-03T13:54:22.170Z,14.30
2023-05-03T13:56:49.088Z,14.30
2023-05-03T13:59:16.748Z,14.30
2023-05-03T14:01:43.760Z,14.20
2023-05-03T14:04:11.126Z,14.20
2023-05-03T14:06:41.121Z,14.30
2023-05-03T14:09:09.331Z,14.30
2023-05-03T14:11:36.244Z,14.40
2023-05-03T14:14:03.479Z,14.40
2023-05-03T14:16:40.680Z,14.30
2023-05-03T14:19:11.073Z,14.30
2023-05-03T14:21:38.522Z,14.40
2023-05-03T14:24:06.857Z,14.30
2023-05-03T14:26:37.223Z,14.20
2023-05-03T14:29:05.846Z,14.20
2023-05-03T14:31:34.096Z,14.20
2023-05-03T14:34:01.316Z,14.20
2023-05-03T14:36:36.185Z,14.20
2023-05-03T14:39:04.334Z,14.20
2023-05-03T14:41:33.456Z,14.20
2023-05-03T14:44:00.712Z,14.30
2023-05-03T14:46:27.652Z,14.30
2023-05-03T14:48:54.492Z,14.20
2023-05-03T14:51:21.346Z,14.30
2023-05-03T14:53:48.233Z,14.40
2023-05-03T14:56:15.108Z,14.50
2023-05-03T14:58:41.994Z,14.40
2023-05-03T15:01:08.862Z,14.50
2023-05-03T15:03:38.194Z,14.50
2023-05-03T15:06:05.728Z,14.60
2023-05-03T15:08:33.178Z,14.60
2023-05-03T15:11:00.019Z,14.60
2023-05-03T15:13:27.232Z,14.50
2023-05-03T15:15:54.244Z,14.50
2023-05-03T15:18:21.131Z,14.60
2023-05-03T15:20:48.224Z,14.60
2023-05-03T15:23:15.099Z,14.70
2023-05-03T15:25:42.153Z,14.60
2023-05-03T15:28:09.019Z,14.70
2023-05-03T15:30:36.249Z,14.60
2023-05-03T15:33:04.468Z,14.70
2023-05-03T15:35:31.450Z,14.70
2023-05-03T15:37:58.896Z,14.70
2023-05-03T15:40:27.128Z,14.60
2023-05-03T15:42:54.160Z,14.60
2023-05-03T15:45:23.449Z,14.60
2023-05-03T15:47:50.553Z,14.50
2023-05-03T15:50:17.640Z,14.50
2023-05-03T15:52:46.848Z,14.50
2023-05-03T15:55:13.962Z,14.50
2023-05-03T15:57:41.170Z,14.50
2023-05-03T16:00:15.415Z,14.50
2023-05-03T16:02:42.607Z,14.40
2023-05-03T16:05:10.637Z,14.50
2023-05-03T16:07:37.585Z,14.40
2023-05-03T16:10:05.238Z,14.60
2023-05-03T16:12:32.319Z,14.60
2023-05-03T16:14:59.260Z,14.60
2023-05-03T16:17:26.158Z,14.60
2023-05-03T16:19:53.038Z,14.70
2023-05-03T16:22:20.019Z,14.60
2023-05-03T16:24:47.453Z,14.60
2023-05-03T16:27:14.511Z,14.60
2023-05-03T16:29:46.612Z,14.50
2023-05-03T16:32:13.762Z,14.40
2023-05-03T16:34:40.565Z,14.50
2023-05-03T16:37:07.447Z,14.50
2023-05-03T16:39:34.397Z,14.40
2023-05-03T16:42:02.867Z,14.40
2023-05-03T16:44:29.797Z,14.50
2023-05-03T16:46:56.888Z,14.50
2023-05-03T16:49:23.931Z,14.40
2023-05-03T16:51:50.994Z,14.30
2023-05-03T16:54:18.179Z,14.40
2023-05-03T16:56:45.101Z,14.30
2023-05-03T16:59:12.118Z,14.30
2023-05-03T17:01:39.346Z,14.30
2023-05-03T17:04:09.655Z,14.40
2023-05-03T17:06:37.041Z,14.30
2023-05-03T17:09:07.002Z,14.30
2023-05-03T17:11:36.221Z,14.30
2023-05-03T17:14:03.671Z,14.30
2023-05-03T17:16:30.634Z,14.20
2023-05-03T17:19:01.019Z,14.20
2023-05-03T17:21:27.842Z,14.30
2023-05-03T17:23:54.718Z,14.20
2023-05-03T17:26:22.409Z,14.10
2023-05-03T17:28:49.269Z,14.20
2023-05-03T17:31:16.151Z,14.10
2023-05-03T17:33:43.083Z,14.10
2023-05-03T17:36:10.041Z,14.00
2023-05-03T17:38:37.172Z,14.00
2023-05-03T17:41:08.137Z,14.10
2023-05-03T17:43:35.938Z,14.00
2023-05-03T17:46:14.536Z,14.00
2023-05-03T17:48:48.638Z,13.90
2023-05-03T17:51:15.620Z,13.80
2023-05-03T17:53:43.202Z,13.70
2023-05-03T17:56:14.392Z,13.70
2023-05-03T17:58:41.460Z,13.60
2023-05-03T18:01:10.501Z,13.40
2023-05-03T18:03:38.201Z,13.40
2023-05-03T18:06:08.492Z,13.40
2023-05-03T18:08:35.449Z,13.30
2023-05-03T18:11:02.445Z,13.10
2023-05-03T18:13:29.953Z,13.00
2023-05-03T18:15:56.850Z,13.00
2023-05-03T18:18:23.781Z,13.00
2023-05-03T18:21:00.971Z,13.00
2023-05-03T18:23:28.036Z,13.00
2023-05-03T18:25:54.934Z,12.90
2023-05-03T18:28:22.873Z,12.90
2023-05-03T18:30:52.905Z,12.80
2023-05-03T18:33:20.112Z,12.70
2023-05-03T18:35:53.267Z,12.70
2023-05-03T18:38:21.808Z,12.60
2023-05-03T18:40:49.572Z,12.50
2023-05-03T18:43:16.538Z,12.40
2023-05-03T18:45:43.514Z,12.40
2023-05-03T18:48:10.568Z,12.30
2023-05-03T18:50:43.098Z,12.20
2023-05-03T18:53:14.061Z,12.10
2023-05-03T18:55:41.774Z,12.10
2023-05-03T18:58:08.613Z,12.00
2023-05-03T19:00:35.507Z,11.90
2023-05-03T19:03:02.422Z,11.80
2023-05-03T19:05:29.311Z,11.80
2023-05-03T19:07:56.189Z,11.70
2023-05-03T19:10:24.596Z,11.70
2023-05-03T19:12:52.926Z,11.50
2023-05-03T19:15:19.981Z,11.40
2023-05-03T19:17:47.570Z,11.30
2023-05-03T19:20:14.953Z,11.30
2023-05-03T19:22:41.854Z,11.20
2023-05-03T19:25:09.784Z,11.10
2023-05-03T19:27:36.780Z,11.00
2023-05-03T19:30:04.115Z,11.00
2023-05-03T19:32:32.213Z,11.00
2023-05-03T19:34:59.124Z,11.00
2023-05-03T19:37:26.185Z,11.00
2023-05-03T19:39:53.164Z,11.00
2023-05-03T19:42:20.013Z,11.00
2023-05-03T19:44:47.023Z,10.90
2023-05-03T19:47:14.172Z,11.00
2023-05-03T19:49:41.110Z,10.80
2023-05-03T19:52:08.167Z,10.80
2023-05-03T19:54:35.115Z,10.70
2023-05-03T19:57:08.404Z,10.70
2023-05-03T19:59:35.470Z,10.70
2023-05-03T20:02:03.365Z,10.70
2023-05-03T20:04:30.635Z,10.70
2023-05-03T20:06:57.524Z,10.70
2023-05-03T20:09:24.557Z,10.60
2023-05-03T20:11:56.822Z,10.60
2023-05-03T20:14:23.621Z,10.50
2023-05-03T20:16:50.482Z,10.50
2023-05-03T20:19:17.614Z,10.60
2023-05-03T20:21:44.892Z,10.50
2023-05-03T20:24:11.800Z,10.50
2023-05-03T20:26:39.036Z,10.50
2023-05-03T20:29:05.955Z,10.50
2023-05-03T20:31:33.217Z,10.60
2023-05-03T20:34:00.601Z,10.50
2023-05-03T20:36:28.158Z,10.40
2023-05-03T20:38:55.404Z,10.50
2023-05-03T20:41:23.183Z,10.50
2023-05-03T20:43:52.114Z,10.50
2023-05-03T20:46:19.201Z,10.60
2023-05-03T20:48:46.148Z,10.50
2023-05-03T20:51:13.143Z,10.50
2023-05-03T20:53:40.009Z,10.40
2023-05-03T20:56:08.059Z,10.20
2023-05-03T20:58:35.066Z,10.30
2023-05-03T21:01:04.472Z,10.30
2023-05-03T21:03:32.108Z,10.30
2023-05-03T21:05:59.398Z,10.20
2023-05-03T21:08:26.626Z,10.20
2023-05-03T21:10:54.353Z,10.20
2023-05-03T21:13:21.339Z,10.10
2023-05-03T21:15:48.232Z,10.10
2023-05-03T21:18:15.027Z,10.10
2023-05-03T21:20:45.685Z,10.00
2023-05-03T21:23:12.721Z,9.90
2023-05-03T21:25:39.592Z,9.90
2023-05-03T21:28:06.465Z,9.90
2023-05-03T21:30:33.327Z,9.90
2023-05-03T21:33:00.278Z,9.70
2023-05-03T21:35:27.242Z,9.80
2023-05-03T21:37:54.118Z,9.70
2023-05-03T21:40:21.966Z,9.70
2023-05-03T21:42:52.642Z,9.70
2023-05-03T21:45:20.022Z,9.70
2023-05-03T21:47:47.197Z,9.70
2023-05-03T21:50:14.237Z,9.70
2023-05-03T21:52:41.257Z,9.60
2023-05-03T21:55:08.849Z,9.50
2023-05-03T21:57:36.920Z,9.40
2023-05-03T22:00:05.762Z,9.50
2023-05-03T22:02:33.021Z,9.50
2023-05-03T22:04:59.937Z,9.50
2023-05-03T22:07:27.214Z,9.60
2023-05-03T22:09:54.052Z,9.50
2023-05-03T22:12:24.084Z,9.40
2023-05-03T22:14:52.031Z,9.40
2023-05-03T22:17:19.177Z,9.40
2023-05-03T22:19:46.023Z,9.40
2023-05-03T22:22:12.911Z,9.30
2023-05-03T22:24:40.999Z,9.30
2023-05-03T22:27:08.011Z,9.30
2023-05-03T22:29:34.963Z,9.30
2023-05-03T22:32:01.971Z,9.30
2023-05-03T22:34:29.376Z,9.20
2023-05-03T22:36:56.274Z,9.20
2023-05-03T22:39:23.677Z,9.10
2023-05-03T22:41:50.518Z,9.10
2023-05-03T22:44:17.332Z,9.10
2023-05-03T22:46:44.191Z,8.90
2023-05-03T22:49:11.030Z,9.00
2023-05-03T22:51:38.814Z,8.90
2023-05-03T22:54:06.137Z,8.90
2023-05-03T22:56:33.122Z,8.80
2023-05-03T22:59:00.032Z,8.90
2023-05-03T23:01:27.519Z,8.80
2023-05-03T23:03:54.724Z,8.80
2023-05-03T23:06:21.706Z,8.80
2023-05-03T23:08:49.026Z,8.70
2023-05-03T23:11:16.194Z,8.70
2023-05-03T23:13:43.364Z,8.70
2023-05-03T23:16:10.736Z,8.70
2023-05-03T23:18:37.933Z,8.70
2023-05-03T23:21:04.818Z,8.60
2023-05-03T23:23:31.650Z,8.60
2023-05-03T23:25:58.528Z,8.60
2023-05-03T23:28:25.809Z,8.60
2023-05-03T23:30:53.301Z,8.60
2023-05-03T23:33:21.062Z,8.50
2023-05-03T23:35:48.921Z,8.40
2023-05-03T23:38:16.044Z,8.40
2023-05-03T23:40:42.975Z,8.40
2023-05-03T23:43:09.866Z,8.40
2023-05-03T23:45:36.763Z,8.40
2023-05-03T23:48:03.783Z,8.30
2023-05-03T23:50:33.359Z,8.40
2023-05-03T23:53:03.811Z,8.40
2023-05-03T23:55:30.741Z,8.40
2023-05-03T23:57:57.608Z,8.30
